KBKE

Baker City Municipal Airport

Baker City, Oregon, USA
METAR KBKE 260324Z AUTO 01011KT 6SM -SN BR BKN005 BKN028 OVC033 M01/M03 A2975 RMK AO2 P0001 T10061028
Observed Flight Rules
Feb-26 @ 03:24 UTC (7 minutes ago) Instrument Flight Rules
Wind Visibility Clouds Conditions
10° at 11 knots 6 miles
  • Broken at 500' AGL
  • Broken at 2,800' AGL
  • Overcast at 3,300' AGL
  • Light Snow
  • Mist
Temperatures Readings Precipitation
Current -1°C / 30°F
Dewpoint -3°C / 27°F
Humidity 86%
Altimeter 29.75" Hg
Pressure 1007 hPa
Elevation 1024
Current Rain 0.01
METAR KBKE 260324Z AUTO 01011KT 6SM -SN BR BKN005 BKN028 OVC033 M01/M03 A2975 RMK AO2 P0001 T10061028
Observed Flight Rules
Feb-26 @ 03:24 UTC
(7 minutes ago)
IFR
Wind Visibility
10° at 11 knots 6 miles
Clouds
  • Broken at 500' AGL
  • Broken at 2,800' AGL
  • Overcast at 3,300' AGL
Conditions
  • Light Snow
  • Mist
Temperature Dewpoint
-1°C / 30°F -3°C / 27°F
Humidity Altimeter Pressure
86% 29.75" Hg 1007 hPa
Current Rain
0.01